sensor_id;sensor_type;location;lat;lon;timestamp;pressure;altitude;pressure_sealevel;temperature;humidity
33454;BME280;39400;49.744;7.012;2022-11-23T00:00:17;94392.69;;;4.53;100.00
33454;BME280;39400;49.744;7.012;2022-11-23T00:02:42;94402.81;;;4.53;100.00
33454;BME280;39400;49.744;7.012;2022-11-23T00:05:08;94408.25;;;4.53;100.00
33454;BME280;39400;49.744;7.012;2022-11-23T00:07:33;94410.97;;;4.53;100.00
33454;BME280;39400;49.744;7.012;2022-11-23T00:09:58;94410.97;;;4.57;100.00
33454;BME280;39400;49.744;7.012;2022-11-23T00:12:24;94412.91;;;4.56;100.00
33454;BME280;39400;49.744;7.012;2022-11-23T00:14:49;94403.59;;;4.61;100.00
33454;BME280;39400;49.744;7.012;2022-11-23T00:17:14;94398.91;;;4.61;100.00
33454;BME280;39400;49.744;7.012;2022-11-23T00:19:39;94402.00;;;4.63;100.00
33454;BME280;39400;49.744;7.012;2022-11-23T00:22:05;94408.63;;;4.62;100.00
33454;BME280;39400;49.744;7.012;2022-11-23T00:24:30;94413.66;;;4.60;100.00
33454;BME280;39400;49.744;7.012;2022-11-23T00:26:55;94411.34;;;4.62;100.00
33454;BME280;39400;49.744;7.012;2022-11-23T00:29:21;94416.78;;;4.62;100.00
33454;BME280;39400;49.744;7.012;2022-11-23T00:31:46;94408.22;;;4.60;100.00
33454;BME280;39400;49.744;7.012;2022-11-23T00:34:11;94430.78;;;4.64;100.00
33454;BME280;39400;49.744;7.012;2022-11-23T00:36:37;94419.91;;;4.61;100.00
33454;BME280;39400;49.744;7.012;2022-11-23T00:39:02;94421.47;;;4.58;100.00
33454;BME280;39400;49.744;7.012;2022-11-23T00:41:27;94425.34;;;4.57;100.00
33454;BME280;39400;49.744;7.012;2022-11-23T00:43:53;94417.59;;;4.52;100.00
33454;BME280;39400;49.744;7.012;2022-11-23T00:46:21;94422.25;;;4.59;100.00
33454;BME280;39400;49.744;7.012;2022-11-23T00:48:48;94424.19;;;4.58;100.00
33454;BME280;39400;49.744;7.012;2022-11-23T00:51:17;94431.59;;;4.58;100.00
33454;BME280;39400;49.744;7.012;2022-11-23T00:53:42;94426.91;;;4.58;100.00
33454;BME280;39400;49.744;7.012;2022-11-23T00:56:10;94440.91;;;4.57;100.00
33454;BME280;39400;49.744;7.012;2022-11-23T00:58:36;94432.34;;;4.58;100.00
33454;BME280;39400;49.744;7.012;2022-11-23T01:01:13;94433.13;;;4.59;100.00
33454;BME280;39400;49.744;7.012;2022-11-23T01:03:44;94443.25;;;4.58;100.00
33454;BME280;39400;49.744;7.012;2022-11-23T01:06:12;94437.81;;;4.58;100.00
33454;BME280;39400;49.744;7.012;2022-11-23T01:08:38;94440.91;;;4.57;100.00
33454;BME280;39400;49.744;7.012;2022-11-23T01:11:06;94441.66;;;4.57;100.00
33454;BME280;39400;49.744;7.012;2022-11-23T01:13:33;94447.50;;;4.59;100.00
33454;BME280;39400;49.744;7.012;2022-11-23T01:15:59;94438.19;;;4.57;100.00
33454;BME280;39400;49.744;7.012;2022-11-23T01:18:25;94443.25;;;4.58;100.00
33454;BME280;39400;49.744;7.012;2022-11-23T01:20:50;94441.66;;;4.57;100.00
33454;BME280;39400;49.744;7.012;2022-11-23T01:23:16;94445.56;;;4.56;100.00
33454;BME280;39400;49.744;7.012;2022-11-23T01:25:41;94451.03;;;4.49;100.00
33454;BME280;39400;49.744;7.012;2022-11-23T01:28:07;94453.38;;;4.54;100.00
33454;BME280;39400;49.744;7.012;2022-11-23T01:30:33;94459.59;;;4.55;100.00
33454;BME280;39400;49.744;7.012;2022-11-23T01:32:58;94450.66;;;4.54;100.00
33454;BME280;39400;49.744;7.012;2022-11-23T01:35:24;94452.56;;;4.57;100.00
33454;BME280;39400;49.744;7.012;2022-11-23T01:37:51;94466.16;;;4.57;100.00
33454;BME280;39400;49.744;7.012;2022-11-23T01:40:16;94458.81;;;4.54;100.00
33454;BME280;39400;49.744;7.012;2022-11-23T01:50:55;94470.84;;;4.53;100.00
33454;BME280;39400;49.744;7.012;2022-11-23T01:53:22;94474.75;;;4.48;100.00
33454;BME280;39400;49.744;7.012;2022-11-23T01:55:50;94461.91;;;4.49;100.00
33454;BME280;39400;49.744;7.012;2022-11-23T01:58:19;94462.69;;;4.46;100.00
33454;BME280;39400;49.744;7.012;2022-11-23T02:00:46;94466.19;;;4.50;100.00
33454;BME280;39400;49.744;7.012;2022-11-23T02:03:14;94468.53;;;4.51;100.00
33454;BME280;39400;49.744;7.012;2022-11-23T02:05:45;94472.81;;;4.49;100.00
33454;BME280;39400;49.744;7.012;2022-11-23T02:08:15;94465.81;;;4.48;100.00
33454;BME280;39400;49.744;7.012;2022-11-23T02:10:43;94472.81;;;4.49;100.00
33454;BME280;39400;49.744;7.012;2022-11-23T02:13:10;94472.81;;;4.49;100.00
33454;BME280;39400;49.744;7.012;2022-11-23T02:15:37;94470.84;;;4.46;100.00
33454;BME280;39400;49.744;7.012;2022-11-23T02:18:06;94478.25;;;4.49;100.00
33454;BME280;39400;49.744;7.012;2022-11-23T02:20:34;94474.34;;;4.46;100.00
33454;BME280;39400;49.744;7.012;2022-11-23T02:28:15;94472.81;;;4.42;100.00
33454;BME280;39400;49.744;7.012;2022-11-23T02:30:43;94464.25;;;4.47;100.00
33454;BME280;39400;49.744;7.012;2022-11-23T02:33:10;94462.69;;;4.42;100.00
33454;BME280;39400;49.744;7.012;2022-11-23T02:35:49;94459.22;;;4.35;100.00
33454;BME280;39400;49.744;7.012;2022-11-23T02:38:15;94467.38;;;4.35;100.00
33454;BME280;39400;49.744;7.012;2022-11-23T02:40:41;94462.34;;;4.37;100.00
33454;BME280;39400;49.744;7.012;2022-11-23T02:43:06;94463.09;;;4.34;100.00
33454;BME280;39400;49.744;7.012;2022-11-23T02:45:38;94461.16;;;4.31;100.00
33454;BME280;39400;49.744;7.012;2022-11-23T02:48:05;94466.19;;;4.36;100.00
33454;BME280;39400;49.744;7.012;2022-11-23T02:50:31;94460.38;;;4.34;100.00
33454;BME280;39400;49.744;7.012;2022-11-23T02:52:58;94459.63;;;4.29;100.00
33454;BME280;39400;49.744;7.012;2022-11-23T02:55:24;94458.81;;;4.33;100.00
33454;BME280;39400;49.744;7.012;2022-11-23T02:57:50;94461.16;;;4.31;100.00
33454;BME280;39400;49.744;7.012;2022-11-23T03:00:16;94461.53;;;4.33;100.00
33454;BME280;39400;49.744;7.012;2022-11-23T03:02:42;94451.81;;;4.32;100.00
33454;BME280;39400;49.744;7.012;2022-11-23T03:05:10;94460.38;;;4.30;100.00
33454;BME280;39400;49.744;7.012;2022-11-23T03:07:35;94451.81;;;4.32;100.00
33454;BME280;39400;49.744;7.012;2022-11-23T03:10:01;94455.31;;;4.28;100.00
33454;BME280;39400;49.744;7.012;2022-11-23T03:12:26;94457.25;;;4.32;100.00
33454;BME280;39400;49.744;7.012;2022-11-23T03:14:52;94459.63;;;4.29;100.00
33454;BME280;39400;49.744;7.012;2022-11-23T03:17:18;94458.03;;;4.36;100.00
33454;BME280;39400;49.744;7.012;2022-11-23T03:19:44;94458.81;;;4.29;100.00
33454;BME280;39400;49.744;7.012;2022-11-23T03:22:11;94458.03;;;4.28;100.00
33454;BME280;39400;49.744;7.012;2022-11-23T03:24:36;94468.56;;;4.26;100.00
33454;BME280;39400;49.744;7.012;2022-11-23T03:27:04;94460.41;;;4.26;100.00
33454;BME280;39400;49.744;7.012;2022-11-23T03:29:29;94466.19;;;4.28;100.00
33454;BME280;39400;49.744;7.012;2022-11-23T03:31:56;94456.09;;;4.25;100.00
33454;BME280;39400;49.744;7.012;2022-11-23T03:34:23;94455.31;;;4.28;100.00
33454;BME280;39400;49.744;7.012;2022-11-23T03:36:49;94450.28;;;4.23;100.00
33454;BME280;39400;49.744;7.012;2022-11-23T03:39:15;94452.22;;;4.26;100.00
33454;BME280;39400;49.744;7.012;2022-11-23T03:42:15;94461.53;;;4.25;100.00
33454;BME280;39400;49.744;7.012;2022-11-23T03:44:41;94464.25;;;4.25;100.00
33454;BME280;39400;49.744;7.012;2022-11-23T03:47:06;94462.72;;;4.24;100.00
33454;BME280;39400;49.744;7.012;2022-11-23T03:49:34;94464.25;;;4.29;100.00
33454;BME280;39400;49.744;7.012;2022-11-23T03:51:59;94461.16;;;4.27;100.00
33454;BME280;39400;49.744;7.012;2022-11-23T03:54:26;94458.03;;;4.25;100.00
33454;BME280;39400;49.744;7.012;2022-11-23T03:56:53;94451.81;;;4.32;100.00
33454;BME280;39400;49.744;7.012;2022-11-23T03:59:18;94453.00;;;4.31;100.00
33454;BME280;39400;49.744;7.012;2022-11-23T04:01:43;94461.16;;;4.31;100.00
33454;BME280;39400;49.744;7.012;2022-11-23T04:04:16;94446.00;;;4.29;100.00
33454;BME280;39400;49.744;7.012;2022-11-23T04:06:56;94444.84;;;4.27;100.00
33454;BME280;39400;49.744;7.012;2022-11-23T04:09:25;94447.16;;;4.28;100.00
33454;BME280;39400;49.744;7.012;2022-11-23T04:12:11;94444.84;;;4.31;100.00
33454;BME280;39400;49.744;7.012;2022-11-23T04:14:38;94444.06;;;4.26;100.00
33454;BME280;39400;49.744;7.012;2022-11-23T04:17:03;94452.22;;;4.26;100.00
33454;BME280;39400;49.744;7.012;2022-11-23T04:19:29;94443.28;;;4.22;100.00
33454;BME280;39400;49.744;7.012;2022-11-23T04:21:55;94437.06;;;4.22;100.00
33454;BME280;39400;49.744;7.012;2022-11-23T04:24:20;94448.72;;;4.22;100.00
33454;BME280;39400;49.744;7.012;2022-11-23T04:26:46;94435.50;;;4.21;100.00
33454;BME280;39400;49.744;7.012;2022-11-23T04:29:13;94440.97;;;4.17;100.00
33454;BME280;39400;49.744;7.012;2022-11-23T04:31:43;94442.91;;;4.17;100.00
33454;BME280;39400;49.744;7.012;2022-11-23T04:34:12;94445.63;;;4.20;100.00
33454;BME280;39400;49.744;7.012;2022-11-23T04:36:38;94444.84;;;4.23;100.00
33454;BME280;39400;49.744;7.012;2022-11-23T04:39:03;94445.63;;;4.20;100.00
33454;BME280;39400;49.744;7.012;2022-11-23T04:41:37;94443.66;;;4.24;100.00
33454;BME280;39400;49.744;7.012;2022-11-23T04:44:03;94441.72;;;4.18;100.00
33454;BME280;39400;49.744;7.012;2022-11-23T04:46:29;94457.28;;;4.17;100.00
33454;BME280;39400;49.744;7.012;2022-11-23T04:48:56;94441.72;;;4.21;100.00
33454;BME280;39400;49.744;7.012;2022-11-23T04:51:22;94441.72;;;4.14;100.00
33454;BME280;39400;49.744;7.012;2022-11-23T04:53:49;94447.16;;;4.07;100.00
33454;BME280;39400;49.744;7.012;2022-11-23T04:56:14;94447.94;;;3.97;100.00
33454;BME280;39400;49.744;7.012;2022-11-23T04:58:41;94449.50;;;4.01;100.00
33454;BME280;39400;49.744;7.012;2022-11-23T05:01:07;94444.06;;;3.94;100.00
33454;BME280;39400;49.744;7.012;2022-11-23T05:03:41;94448.72;;;4.01;100.00
33454;BME280;39400;49.744;7.012;2022-11-23T05:06:08;94447.53;;;3.95;100.00
33454;BME280;39400;49.744;7.012;2022-11-23T05:08:38;94447.94;;;3.86;100.00
33454;BME280;39400;49.744;7.012;2022-11-23T05:11:30;94457.66;;;3.91;100.00
33454;BME280;39400;49.744;7.012;2022-11-23T05:13:58;94458.81;;;3.90;100.00
33454;BME280;39400;49.744;7.012;2022-11-23T05:16:23;94466.56;;;3.95;100.00
33454;BME280;39400;49.744;7.012;2022-11-23T05:18:49;94462.72;;;3.89;100.00
33454;BME280;39400;49.744;7.012;2022-11-23T05:21:15;94461.94;;;3.92;100.00
33454;BME280;39400;49.744;7.012;2022-11-23T05:23:40;94456.50;;;3.92;100.00
33454;BME280;39400;49.744;7.012;2022-11-23T05:26:06;94452.19;;;3.84;100.00
33454;BME280;39400;49.744;7.012;2022-11-23T05:28:32;94458.03;;;3.89;100.00
33454;BME280;39400;49.744;7.012;2022-11-23T05:30:58;94452.59;;;3.93;100.00
33454;BME280;39400;49.744;7.012;2022-11-23T05:33:24;94454.16;;;3.87;100.00
33454;BME280;39400;49.744;7.012;2022-11-23T05:35:50;94452.59;;;3.93;100.00
33454;BME280;39400;49.744;7.012;2022-11-23T05:38:18;94455.69;;;3.95;100.00
33454;BME280;39400;49.744;7.012;2022-11-23T05:40:44;94445.63;;;3.99;100.00
33454;BME280;39400;49.744;7.012;2022-11-23T05:43:10;94446.41;;;3.96;100.00
33454;BME280;39400;49.744;7.012;2022-11-23T05:45:35;94454.16;;;3.94;100.00
33454;BME280;39400;49.744;7.012;2022-11-23T05:48:01;94457.28;;;3.96;100.00
33454;BME280;39400;49.744;7.012;2022-11-23T05:50:45;94443.28;;;3.97;100.00
33454;BME280;39400;49.744;7.012;2022-11-23T05:53:26;94451.06;;;3.95;100.00
33454;BME280;39400;49.744;7.012;2022-11-23T05:55:59;94449.50;;;3.91;100.00
33454;BME280;39400;49.744;7.012;2022-11-23T05:58:24;94439.78;;;3.93;100.00
33454;BME280;39400;49.744;7.012;2022-11-23T06:00:50;94451.06;;;3.95;100.00
33454;BME280;39400;49.744;7.012;2022-11-23T06:03:16;94460.78;;;4.00;100.00
33454;BME280;39400;49.744;7.012;2022-11-23T06:05:45;94454.56;;;4.03;100.00
33454;BME280;39400;49.744;7.012;2022-11-23T06:08:11;94455.69;;;3.88;100.00
33454;BME280;39400;49.744;7.012;2022-11-23T06:10:38;94444.03;;;3.84;100.00
33454;BME280;39400;49.744;7.012;2022-11-23T06:13:04;94454.91;;;3.84;100.00
33454;BME280;39400;49.744;7.012;2022-11-23T06:15:30;94454.16;;;3.79;100.00
33454;BME280;39400;49.744;7.012;2022-11-23T06:17:59;94456.50;;;3.85;100.00
33454;BME280;39400;49.744;7.012;2022-11-23T06:20:30;94460.34;;;3.76;100.00
33454;BME280;39400;49.744;7.012;2022-11-23T06:22:59;94461.91;;;3.77;100.00
33454;BME280;39400;49.744;7.012;2022-11-23T06:25:26;94458.41;;;3.73;100.00
33454;BME280;39400;49.744;7.012;2022-11-23T06:27:59;94465.00;;;3.72;100.00
33454;BME280;39400;49.744;7.012;2022-11-23T06:30:31;94470.44;;;3.69;100.00
33454;BME280;39400;49.744;7.012;2022-11-23T06:33:03;94468.88;;;3.64;100.00
33454;BME280;39400;49.744;7.012;2022-11-23T06:35:30;94463.47;;;3.68;100.00
33454;BME280;39400;49.744;7.012;2022-11-23T06:37:56;94459.56;;;3.72;100.00
33454;BME280;39400;49.744;7.012;2022-11-23T06:40:21;94472.75;;;3.67;100.00
33454;BME280;39400;49.744;7.012;2022-11-23T06:42:48;94461.09;;;3.55;100.00
33454;BME280;39400;49.744;7.012;2022-11-23T06:45:19;94471.19;;;3.62;100.00
33454;BME280;39400;49.744;7.012;2022-11-23T06:47:46;94477.03;;;3.64;100.00
33454;BME280;39400;49.744;7.012;2022-11-23T06:50:12;94464.19;;;3.54;100.00
33454;BME280;39400;49.744;7.012;2022-11-23T06:52:38;94463.81;;;3.55;100.00
33454;BME280;39400;49.744;7.012;2022-11-23T06:55:03;94475.06;;;3.50;100.00
33454;BME280;39400;49.744;7.012;2022-11-23T06:57:29;94485.19;;;3.57;100.00
33454;BME280;39400;49.744;7.012;2022-11-23T06:59:54;94480.50;;;3.54;100.00
33454;BME280;39400;49.744;7.012;2022-11-23T07:02:26;94483.63;;;3.63;100.00
33454;BME280;39400;49.744;7.012;2022-11-23T07:04:54;94479.72;;;3.50;100.00
33454;BME280;39400;49.744;7.012;2022-11-23T07:07:20;94484.38;;;3.53;100.00
33454;BME280;39400;49.744;7.012;2022-11-23T07:09:52;94495.25;;;3.60;100.00
33454;BME280;39400;49.744;7.012;2022-11-23T07:12:34;94485.16;;;3.50;100.00
33454;BME280;39400;49.744;7.012;2022-11-23T07:15:00;94487.44;;;3.41;100.00
33454;BME280;39400;49.744;7.012;2022-11-23T07:17:28;94494.06;;;3.47;100.00
33454;BME280;39400;49.744;7.012;2022-11-23T07:19:53;94484.34;;;3.49;100.00
33454;BME280;39400;49.744;7.012;2022-11-23T07:22:19;94489.78;;;3.46;100.00
33454;BME280;39400;49.744;7.012;2022-11-23T07:24:45;94481.25;;;3.40;100.00
33454;BME280;39400;49.744;7.012;2022-11-23T07:27:11;94492.50;;;3.46;100.00
33454;BME280;39400;49.744;7.012;2022-11-23T07:29:36;94492.13;;;3.44;100.00
33454;BME280;39400;49.744;7.012;2022-11-23T07:32:01;94495.25;;;3.60;100.00
33454;BME280;39400;49.744;7.012;2022-11-23T07:34:27;94499.91;;;3.52;100.00
33454;BME280;39400;49.744;7.012;2022-11-23T07:36:53;94489.03;;;3.60;100.00
33454;BME280;39400;49.744;7.012;2022-11-23T07:39:19;94490.63;;;3.64;100.00
33454;BME280;39400;49.744;7.012;2022-11-23T07:41:47;94493.72;;;3.59;100.00
33454;BME280;39400;49.744;7.012;2022-11-23T07:44:20;94482.81;;;3.52;100.00
33454;BME280;39400;49.744;7.012;2022-11-23T07:46:45;94486.72;;;3.54;100.00
33454;BME280;39400;49.744;7.012;2022-11-23T07:49:11;94493.69;;;3.55;100.00
33454;BME280;39400;49.744;7.012;2022-11-23T07:51:36;94491.75;;;3.49;100.00
33454;BME280;39400;49.744;7.012;2022-11-23T07:54:01;94491.75;;;3.60;100.00
33454;BME280;39400;49.744;7.012;2022-11-23T07:56:26;94499.91;;;3.60;100.00
33454;BME280;39400;49.744;7.012;2022-11-23T07:58:52;94495.25;;;3.53;100.00
33454;BME280;39400;49.744;7.012;2022-11-23T08:01:18;94500.34;;;3.72;100.00
33454;BME280;39400;49.744;7.012;2022-11-23T08:03:45;94499.19;;;3.73;100.00
33454;BME280;39400;49.744;7.012;2022-11-23T08:06:12;94495.69;;;3.73;100.00
33454;BME280;39400;49.744;7.012;2022-11-23T08:08:38;94502.31;;;3.79;100.00
33454;BME280;39400;49.744;7.012;2022-11-23T08:11:04;94499.16;;;3.66;100.00
33454;BME280;39400;49.744;7.012;2022-11-23T08:13:29;94503.06;;;3.69;100.00
33454;BME280;39400;49.744;7.012;2022-11-23T08:15:55;94501.50;;;3.68;100.00
33454;BME280;39400;49.744;7.012;2022-11-23T08:18:21;94499.56;;;3.68;100.00
33454;BME280;39400;49.744;7.012;2022-11-23T08:20:47;94501.13;;;3.76;100.00
33454;BME280;39400;49.744;7.012;2022-11-23T08:23:12;94505.44;;;3.81;100.00
33454;BME280;39400;49.744;7.012;2022-11-23T08:25:38;94506.22;;;3.85;100.00
33454;BME280;39400;49.744;7.012;2022-11-23T08:28:03;94492.59;;;3.71;100.00
33454;BME280;39400;49.744;7.012;2022-11-23T08:30:30;94503.50;;;3.89;100.00
33454;BME280;39400;49.744;7.012;2022-11-23T08:32:56;94505.81;;;3.87;100.00
33454;BME280;39400;49.744;7.012;2022-11-23T08:35:21;94513.19;;;3.83;100.00
33454;BME280;39400;49.744;7.012;2022-11-23T08:37:47;94507.34;;;3.80;100.00
33454;BME280;39400;49.744;7.012;2022-11-23T08:40:13;94515.91;;;3.83;100.00
33454;BME280;39400;49.744;7.012;2022-11-23T08:42:38;94506.97;;;3.89;100.00
33454;BME280;39400;49.744;7.012;2022-11-23T08:45:04;94513.19;;;3.90;100.00
33454;BME280;39400;49.744;7.012;2022-11-23T08:47:32;94509.72;;;3.96;100.00
33454;BME280;39400;49.744;7.012;2022-11-23T08:49:58;94516.31;;;3.92;100.00
33454;BME280;39400;49.744;7.012;2022-11-23T08:52:23;94510.06;;;3.84;100.00
33454;BME280;39400;49.744;7.012;2022-11-23T08:54:49;94511.66;;;3.89;100.00
33454;BME280;39400;49.744;7.012;2022-11-23T08:57:14;94516.31;;;3.88;100.00
33454;BME280;39400;49.744;7.012;2022-11-23T08:59:39;94516.34;;;4.02;100.00
33454;BME280;39400;49.744;7.012;2022-11-23T09:02:05;94517.47;;;3.98;100.00
33454;BME280;39400;49.744;7.012;2022-11-23T09:04:30;94508.53;;;3.97;100.00
33454;BME280;39400;49.744;7.012;2022-11-23T09:06:56;94506.22;;;3.99;100.00
33454;BME280;39400;49.744;7.012;2022-11-23T09:09:21;94496.91;;;4.08;100.00
33454;BME280;39400;49.744;7.012;2022-11-23T09:11:47;94510.13;;;4.16;100.00
33454;BME280;39400;49.744;7.012;2022-11-23T09:14:13;94516.72;;;4.15;100.00
33454;BME280;39400;49.744;7.012;2022-11-23T09:16:38;94512.84;;;4.05;100.00
33454;BME280;39400;49.744;7.012;2022-11-23T09:19:04;94514.38;;;3.99;100.00
33454;BME280;39400;49.744;7.012;2022-11-23T09:21:29;94521.78;;;3.99;100.00
33454;BME280;39400;49.744;7.012;2022-11-23T09:23:55;94511.69;;;4.21;100.00
33454;BME280;39400;49.744;7.012;2022-11-23T09:26:20;94517.53;;;4.19;100.00
33454;BME280;39400;49.744;7.012;2022-11-23T09:28:46;94515.56;;;4.23;100.00
33454;BME280;39400;49.744;7.012;2022-11-23T09:31:11;94523.34;;;4.18;100.00
33454;BME280;39400;49.744;7.012;2022-11-23T09:33:36;94518.66;;;4.25;100.00
33454;BME280;39400;49.744;7.012;2022-11-23T09:36:03;94521.03;;;4.31;100.00
33454;BME280;39400;49.744;7.012;2022-11-23T09:38:28;94514.41;;;4.24;100.00
33454;BME280;39400;49.744;7.012;2022-11-23T09:41:05;94514.41;;;4.21;100.00
33454;BME280;39400;49.744;7.012;2022-11-23T09:44:00;94517.13;;;4.57;100.00
33454;BME280;39400;49.744;7.012;2022-11-23T09:49:46;94503.13;;;4.47;100.00
33454;BME280;39400;49.744;7.012;2022-11-23T09:52:18;94506.22;;;4.49;100.00
33454;BME280;39400;49.744;7.012;2022-11-23T09:54:47;94506.25;;;4.28;100.00
33454;BME280;39400;49.744;7.012;2022-11-23T09:57:19;94499.63;;;4.33;100.00
33454;BME280;39400;49.744;7.012;2022-11-23T09:59:55;94499.25;;;4.23;100.00
33454;BME280;39400;49.744;7.012;2022-11-23T10:02:25;94493.03;;;4.34;100.00
33454;BME280;39400;49.744;7.012;2022-11-23T10:04:52;94491.47;;;4.40;100.00
33454;BME280;39400;49.744;7.012;2022-11-23T10:07:23;94486.78;;;4.62;100.00
33454;BME280;39400;49.744;7.012;2022-11-23T10:10:09;94480.56;;;4.43;100.00
33454;BME280;39400;49.744;7.012;2022-11-23T10:21:21;94465.06;;;4.29;100.00
33454;BME280;39400;49.744;7.012;2022-11-23T10:23:52;94470.50;;;4.33;100.00
33454;BME280;39400;49.744;7.012;2022-11-23T10:26:20;94459.59;;;4.44;100.00
33454;BME280;39400;49.744;7.012;2022-11-23T10:28:49;94461.94;;;4.35;100.00
33454;BME280;39400;49.744;7.012;2022-11-23T10:31:19;94465.81;;;4.55;100.00
33454;BME280;39400;49.744;7.012;2022-11-23T10:34:01;94458.78;;;4.61;100.00
33454;BME280;39400;49.744;7.012;2022-11-23T10:36:28;94456.78;;;4.87;100.00
33454;BME280;39400;49.744;7.012;2022-11-23T10:38:57;94452.50;;;4.93;100.00
33454;BME280;39400;49.744;7.012;2022-11-23T10:41:24;94456.34;;;5.03;100.00
33454;BME280;39400;49.744;7.012;2022-11-23T10:46:43;94444.88;;;5.43;100.00
33454;BME280;39400;49.744;7.012;2022-11-23T10:49:16;94442.03;;;5.68;100.00
33454;BME280;39400;49.744;7.012;2022-11-23T10:56:58;94435.72;;;5.82;100.00
33454;BME280;39400;49.744;7.012;2022-11-23T10:59:37;94430.22;;;5.93;100.00
33454;BME280;39400;49.744;7.012;2022-11-23T11:02:19;94428.38;;;6.28;100.00
33454;BME280;39400;49.744;7.012;2022-11-23T11:04:46;94428.28;;;6.38;100.00
33454;BME280;39400;49.744;7.012;2022-11-23T11:07:28;94417.31;;;5.97;100.00
33454;BME280;39400;49.744;7.012;2022-11-23T11:09:56;94425.63;;;5.76;100.00
33454;BME280;39400;49.744;7.012;2022-11-23T11:12:22;94408.41;;;5.86;100.00
33454;BME280;39400;49.744;7.012;2022-11-23T11:17:36;94405.22;;;5.98;100.00
33454;BME280;39400;49.744;7.012;2022-11-23T11:20:32;94411.25;;;6.24;100.00
33454;BME280;39400;49.744;7.012;2022-11-23T11:23:03;94412.06;;;6.21;100.00
33454;BME280;39400;49.744;7.012;2022-11-23T11:25:36;94404.19;;;6.26;100.00
33454;BME280;39400;49.744;7.012;2022-11-23T11:28:24;94396.72;;;6.34;100.00
33454;BME280;39400;49.744;7.012;2022-11-23T11:34:01;94393.31;;;6.23;100.00
33454;BME280;39400;49.744;7.012;2022-11-23T11:36:35;94384.50;;;6.49;100.00
33454;BME280;39400;49.744;7.012;2022-11-23T11:39:05;94392.22;;;6.54;100.00
33454;BME280;39400;49.744;7.012;2022-11-23T11:41:34;94383.59;;;6.59;100.00
33454;BME280;39400;49.744;7.012;2022-11-23T11:44:07;94375.78;;;6.61;100.00
33454;BME280;39400;49.744;7.012;2022-11-23T11:46:39;94367.09;;;6.70;100.00
33454;BME280;39400;49.744;7.012;2022-11-23T11:49:15;94369.47;;;6.68;100.00
33454;BME280;39400;49.744;7.012;2022-11-23T11:51:45;94367.00;;;9.95;100.00
33454;BME280;39400;49.744;7.012;2022-11-23T11:57:05;94345.50;;;12.54;99.64
33454;BME280;39400;49.744;7.012;2022-11-23T11:59:38;94347.59;;;12.85;92.65
33454;BME280;39400;49.744;7.012;2022-11-23T12:02:23;94353.25;;;13.03;91.20
33454;BME280;39400;49.744;7.012;2022-11-23T12:08:12;94358.81;;;8.63;100.00
33454;BME280;39400;49.744;7.012;2022-11-23T12:10:51;94352.03;;;10.45;100.00
33454;BME280;39400;49.744;7.012;2022-11-23T12:13:21;94351.38;;;14.74;87.18
33454;BME280;39400;49.744;7.012;2022-11-23T12:15:54;94356.16;;;13.75;80.75
33454;BME280;39400;49.744;7.012;2022-11-23T12:21:11;94339.31;;;14.41;75.44
33454;BME280;39400;49.744;7.012;2022-11-23T12:24:03;94331.25;;;14.06;72.66
33454;BME280;39400;49.744;7.012;2022-11-23T12:27:16;94321.72;;;15.82;67.16
33454;BME280;39400;49.744;7.012;2022-11-23T12:32:28;94313.09;;;16.70;59.69
33454;BME280;39400;49.744;7.012;2022-11-23T12:35:17;94312.81;;;15.78;61.32
33454;BME280;39400;49.744;7.012;2022-11-23T12:38:00;94292.47;;;16.38;59.94
33454;BME280;39400;49.744;7.012;2022-11-23T12:40:35;94294.06;;;17.76;54.99
33454;BME280;39400;49.744;7.012;2022-11-23T12:43:14;94293.88;;;17.35;56.20
33454;BME280;39400;49.744;7.012;2022-11-23T12:46:02;94287.72;;;16.38;55.71
33454;BME280;39400;49.744;7.012;2022-11-23T12:48:55;94290.41;;;17.70;53.03
33454;BME280;39400;49.744;7.012;2022-11-23T12:59:43;94283.78;;;16.93;55.55
33454;BME280;39400;49.744;7.012;2022-11-23T13:08:13;94269.25;;;15.78;54.51
33454;BME280;39400;49.744;7.012;2022-11-23T13:16:17;94224.88;;;12.90;62.63
33454;BME280;39400;49.744;7.012;2022-11-23T13:21:40;94241.38;;;9.83;79.58
33454;BME280;39400;49.744;7.012;2022-11-23T13:24:23;94244.75;;;9.91;82.90
33454;BME280;39400;49.744;7.012;2022-11-23T13:29:54;94240.34;;;12.08;78.55
33454;BME280;39400;49.744;7.012;2022-11-23T13:42:47;94238.88;;;9.07;89.09
33454;BME280;39400;49.744;7.012;2022-11-23T13:45:20;94232.84;;;9.32;90.93
33454;BME280;39400;49.744;7.012;2022-11-23T13:50:30;94230.81;;;8.64;91.35
33454;BME280;39400;49.744;7.012;2022-11-23T13:52:56;94239.59;;;8.55;94.17
33454;BME280;39400;49.744;7.012;2022-11-23T13:55:35;94243.03;;;8.59;95.52
33454;BME280;39400;49.744;7.012;2022-11-23T14:04:17;94237.69;;;8.52;99.08
33454;BME280;39400;49.744;7.012;2022-11-23T14:06:47;94239.03;;;8.64;98.30
33454;BME280;39400;49.744;7.012;2022-11-23T14:09:53;94236.78;;;8.58;99.95
33454;BME280;39400;49.744;7.012;2022-11-23T14:15:26;94231.41;;;8.12;100.00
33454;BME280;39400;49.744;7.012;2022-11-23T14:34:54;94220.50;;;7.18;100.00
33454;BME280;39400;49.744;7.012;2022-11-23T14:40:29;94218.16;;;7.43;100.00
33454;BME280;39400;49.744;7.012;2022-11-23T14:43:00;94219.75;;;7.17;100.00
33454;BME280;39400;49.744;7.012;2022-11-23T14:45:29;94226.56;;;7.29;100.00
33454;BME280;39400;49.744;7.012;2022-11-23T14:47:55;94230.69;;;6.90;100.00
33454;BME280;39400;49.744;7.012;2022-11-23T14:50:26;94250.41;;;7.01;100.00
33454;BME280;39400;49.744;7.012;2022-11-23T14:52:54;94255.03;;;6.77;100.00
33454;BME280;39400;49.744;7.012;2022-11-23T14:55:27;94269.31;;;6.58;100.00
33454;BME280;39400;49.744;7.012;2022-11-23T14:57:59;94283.88;;;6.48;100.00
33454;BME280;39400;49.744;7.012;2022-11-23T15:02:52;94277.63;;;6.47;100.00
33454;BME280;39400;49.744;7.012;2022-11-23T15:05:21;94288.28;;;6.38;100.00
33454;BME280;39400;49.744;7.012;2022-11-23T15:07:56;94299.97;;;6.38;100.00
33454;BME280;39400;49.744;7.012;2022-11-23T15:10:39;94301.25;;;6.27;100.00